Marble Falls, TX

5:33 PM CDT on August 27, 2015 (GMT -0500)
Water Treatment Plant | | Change Station
CLOSE
Current Station
Personal Weather Station
Location: Meadowlakes, TX
Elevation: 800 ft
Nearby Weather Stations

Elev 800 ft 30.56 °N, 98.29 °W | Updated 21 seconds ago

Clear
Clear
97.5 °F
Feels Like 99 °F
N
4.0
Wind Variable Wind from SSE
Gusts 5.0 mph

Today
High -- | Low -- °F
--% Chance of Precip.
Yesterday
High -- | Low -- °F
Precip. -- in
7:06 AM 8:02 PM
Waxing Gibbous, 95% visible
Pressure 29.99 in
Visibility -9999.0 miles
Clouds Clear
Heat Index 99 °F
Dew Point 62 °F
Humidity 31%
Rainfall 0.00 in
Snow Depth Not available.
UV 4 out of 12
Pollen 6.00 out of 12
Air Quality Not available.
Flu Activity Not available.
METAR KDZB 272215Z AUTO 09004KT CLR 36/14 A2999 RMK AO2 T03630142 PWINO
Pressure 29.99 in
Visibility -9999.0 miles
Clouds Clear
Heat Index 99 °F
Dew Point 62 °F
Humidity 31%
Rainfall 0.00 in
Snow Depth Not available.
UV 4 out of 12
Pollen 6.00 out of 12
Air Quality Not available.
Flu Activity Not available.
METAR KDZB 272215Z AUTO 09004KT CLR 36/14 A2999 RMK AO2 T03630142 PWINO

10-Day Weather Forecast

×

Almanac

Astronomy

Aug. 27, 2015 Rise Set
Actual Time
Civil Twilight
Nautical Twilight
Astronomical Twilight
Moon
Length of Visible Light
Length of Day
Tomorrow will be .
, % of the Moon is Illuminated

Today's Extremes

State Highs State Lows

Community

WunderPhotos

Upload Photos

1,850,252 photos uploaded!

WunderBlogs® & News

Nearby

Air Quality

  Air Quality AQ Index Pollutant
Not available.

Snow Depth

Station Depth Elevation

Earthquake Activity

City Distance Mag. Time & Date
Minimum magnitude displayed is 2.5.

Coastal Water Temperatures

Place Temperature

Stations

Nearby Weather Stations

Station Location Temp. Windchill Dew Point Humidity Wind Precip. Elev Updated Type